createdAt,value
2023-05-23T00:01:07.323Z,47.64
2023-05-23T00:03:34.857Z,47.58
2023-05-23T00:06:02.575Z,48.24
2023-05-23T00:08:29.249Z,48.14
2023-05-23T00:10:55.901Z,48.43
2023-05-23T00:13:22.998Z,48.34
2023-05-23T00:15:49.705Z,48.36
2023-05-23T00:18:16.703Z,48.48
2023-05-23T00:20:44.186Z,48.54
2023-05-23T00:23:18.826Z,48.83
2023-05-23T00:25:53.220Z,48.66
2023-05-23T00:28:20.829Z,48.88
2023-05-23T00:30:49.345Z,48.90
2023-05-23T00:33:17.729Z,48.79
2023-05-23T00:35:44.490Z,48.84
2023-05-23T00:38:11.734Z,48.97
2023-05-23T00:40:38.783Z,49.06
2023-05-23T00:43:05.932Z,49.04
2023-05-23T00:45:32.587Z,49.00
2023-05-23T00:48:00.372Z,49.20
2023-05-23T00:50:29.877Z,49.21
2023-05-23T00:52:59.734Z,48.79
2023-05-23T00:55:26.786Z,49.09
2023-05-23T00:57:57.475Z,48.89
2023-05-23T01:00:25.662Z,49.01
2023-05-23T01:02:53.650Z,49.27
2023-05-23T01:05:22.664Z,49.32
2023-05-23T01:07:51.159Z,49.14
2023-05-23T01:10:21.514Z,49.22
2023-05-23T01:13:12.247Z,49.69
2023-05-23T01:15:55.065Z,49.83
2023-05-23T01:18:27.028Z,49.67
2023-05-23T01:20:57.141Z,49.92
2023-05-23T01:23:52.466Z,49.70
2023-05-23T01:26:58.093Z,49.48
2023-05-23T01:29:28.517Z,49.77
2023-05-23T01:31:58.448Z,49.67
2023-05-23T01:34:25.345Z,50.21
2023-05-23T01:36:58.113Z,49.84
2023-05-23T01:39:24.781Z,50.12
2023-05-23T01:41:53.007Z,50.32
2023-05-23T01:44:21.479Z,50.51
2023-05-23T01:46:48.815Z,50.33
2023-05-23T01:49:17.069Z,50.95
2023-05-23T01:51:44.127Z,50.86
2023-05-23T01:54:10.954Z,51.13
2023-05-23T01:56:38.046Z,51.25
2023-05-23T01:59:04.850Z,51.50
2023-05-23T02:01:31.609Z,51.31
2023-05-23T02:03:58.540Z,51.07
2023-05-23T02:06:25.286Z,51.12
2023-05-23T02:08:52.039Z,51.36
2023-05-23T02:11:18.697Z,50.88
2023-05-23T02:13:45.717Z,51.21
2023-05-23T02:16:14.075Z,50.94
2023-05-23T02:18:40.862Z,50.90
2023-05-23T02:21:07.523Z,50.96
2023-05-23T02:23:34.189Z,51.03
2023-05-23T02:26:00.912Z,51.25
2023-05-23T02:28:27.699Z,51.01
2023-05-23T02:30:54.470Z,51.28
2023-05-23T02:33:21.821Z,51.17
2023-05-23T02:35:50.842Z,51.52
2023-05-23T02:38:17.935Z,51.38
2023-05-23T02:40:44.810Z,51.15
2023-05-23T02:43:11.456Z,51.16
2023-05-23T02:45:38.189Z,51.26
2023-05-23T02:48:05.003Z,51.28
2023-05-23T02:50:31.882Z,51.13
2023-05-23T02:52:58.521Z,51.40
2023-05-23T02:55:25.262Z,51.45
2023-05-23T02:57:52.459Z,51.55
2023-05-23T03:00:19.319Z,51.22
2023-05-23T03:02:46.148Z,50.90
2023-05-23T03:05:12.865Z,51.16
2023-05-23T03:07:39.524Z,51.07
2023-05-23T03:10:07.357Z,50.90
2023-05-23T03:12:34.183Z,51.02
2023-05-23T03:15:00.838Z,51.23
2023-05-23T03:17:27.545Z,51.44
2023-05-23T03:19:54.252Z,51.43
2023-05-23T03:22:20.949Z,51.41
2023-05-23T03:24:47.737Z,51.29
2023-05-23T03:27:14.739Z,51.25
2023-05-23T03:29:41.432Z,51.18
2023-05-23T03:32:08.370Z,51.17
2023-05-23T03:34:36.632Z,51.09
2023-05-23T03:37:04.258Z,51.42
2023-05-23T03:39:31.232Z,51.00
2023-05-23T03:41:57.885Z,51.17
2023-05-23T03:44:24.754Z,51.42
2023-05-23T03:46:51.483Z,51.42
2023-05-23T03:49:18.141Z,51.01
2023-05-23T03:51:44.854Z,51.20
2023-05-23T03:54:11.528Z,51.29
2023-05-23T03:56:38.214Z,51.52
2023-05-23T03:59:04.941Z,51.11
2023-05-23T04:01:31.600Z,51.51
2023-05-23T04:04:00.298Z,51.55
2023-05-23T04:06:30.114Z,51.14
2023-05-23T04:08:57.505Z,51.59
2023-05-23T04:11:24.147Z,51.10
2023-05-23T04:13:52.087Z,51.33
2023-05-23T04:16:18.980Z,51.34
2023-05-23T04:18:47.663Z,51.15
2023-05-23T04:21:14.439Z,51.28
2023-05-23T04:23:41.189Z,51.35
2023-05-23T04:26:07.881Z,51.33
2023-05-23T04:28:34.874Z,51.46
2023-05-23T04:31:03.324Z,51.74
2023-05-23T04:33:30.770Z,51.73
2023-05-23T04:35:57.507Z,51.76
2023-05-23T04:38:25.250Z,51.80
2023-05-23T04:40:55.244Z,51.83
2023-05-23T04:43:22.080Z,51.99
2023-05-23T04:45:51.500Z,51.85
2023-05-23T04:48:21.672Z,51.77
2023-05-23T04:50:49.007Z,51.92
2023-05-23T04:53:15.723Z,52.08
2023-05-23T04:55:42.808Z,51.58
2023-05-23T04:58:10.360Z,51.46
2023-05-23T05:00:37.483Z,51.56
2023-05-23T05:03:04.500Z,51.47
2023-05-23T05:05:31.194Z,51.37
2023-05-23T05:07:57.898Z,51.34
2023-05-23T05:10:24.561Z,51.29
2023-05-23T05:12:51.292Z,51.30
2023-05-23T05:15:18.548Z,51.13
2023-05-23T05:17:47.508Z,51.20
2023-05-23T05:20:16.361Z,51.12
2023-05-23T05:22:43.770Z,50.78
2023-05-23T05:25:11.344Z,50.83
2023-05-23T05:27:40.489Z,50.50
2023-05-23T05:30:09.269Z,50.30
2023-05-23T05:32:36.038Z,50.36
2023-05-23T05:35:03.708Z,50.26
2023-05-23T05:37:30.718Z,50.08
2023-05-23T05:39:57.476Z,49.85
2023-05-23T05:42:24.140Z,49.72
2023-05-23T05:44:51.058Z,49.49
2023-05-23T05:47:17.784Z,49.38
2023-05-23T05:49:44.510Z,49.29
2023-05-23T05:52:11.181Z,49.26
2023-05-23T05:54:37.892Z,48.98
2023-05-23T05:57:05.013Z,48.90
2023-05-23T05:59:32.595Z,48.88
2023-05-23T06:01:59.631Z,48.70
2023-05-23T06:04:26.456Z,48.76
2023-05-23T06:06:53.210Z,48.73
2023-05-23T06:09:19.975Z,48.46
2023-05-23T06:11:46.989Z,48.50
2023-05-23T06:14:13.738Z,48.49
2023-05-23T06:16:41.153Z,48.44
2023-05-23T06:19:08.630Z,48.28
2023-05-23T06:21:36.307Z,48.12
2023-05-23T06:24:03.168Z,48.25
2023-05-23T06:26:29.834Z,48.01
2023-05-23T06:28:56.704Z,48.12
2023-05-23T06:31:23.536Z,48.09
2023-05-23T06:33:51.196Z,47.56
2023-05-23T06:36:17.864Z,47.39
2023-05-23T06:38:44.851Z,47.20
2023-05-23T06:41:11.637Z,46.93
2023-05-23T06:43:38.383Z,46.54
2023-05-23T06:46:05.342Z,46.35
2023-05-23T06:48:32.108Z,46.15
2023-05-23T06:50:58.917Z,45.83
2023-05-23T06:53:25.726Z,45.40
2023-05-23T06:55:52.470Z,45.64
2023-05-23T06:58:19.218Z,45.52
2023-05-23T07:00:45.894Z,45.20
2023-05-23T07:03:12.677Z,45.04
2023-05-23T07:05:41.241Z,45.02
2023-05-23T07:08:08.537Z,44.75
2023-05-23T07:10:35.589Z,44.53
2023-05-23T07:13:02.443Z,44.39
2023-05-23T07:15:29.180Z,44.19
2023-05-23T07:17:56.067Z,44.04
2023-05-23T07:20:22.932Z,43.76
2023-05-23T07:22:51.619Z,43.46
2023-05-23T07:25:18.989Z,43.16
2023-05-23T07:27:45.694Z,43.08
2023-05-23T07:30:12.490Z,43.02
2023-05-23T07:32:39.331Z,42.54
2023-05-23T07:35:06.658Z,42.46
2023-05-23T07:37:33.326Z,42.36
2023-05-23T07:40:01.328Z,42.18
2023-05-23T07:42:28.043Z,41.74
2023-05-23T07:44:54.698Z,41.82
2023-05-23T07:47:21.781Z,41.54
2023-05-23T07:49:48.551Z,41.21
2023-05-23T07:52:15.517Z,41.10
2023-05-23T07:54:42.757Z,40.63
2023-05-23T07:57:09.976Z,40.53
2023-05-23T07:59:37.055Z,40.37
2023-05-23T08:02:03.866Z,40.29
2023-05-23T08:04:32.377Z,40.59
2023-05-23T08:07:05.692Z,40.23
2023-05-23T08:09:32.885Z,39.99
2023-05-23T08:11:59.689Z,39.90
2023-05-23T08:14:34.888Z,39.95
2023-05-23T08:17:09.389Z,39.73
2023-05-23T08:19:36.300Z,39.73
2023-05-23T08:22:04.825Z,39.41
2023-05-23T08:24:31.924Z,39.53
2023-05-23T08:26:58.645Z,39.54
2023-05-23T08:29:25.292Z,39.03
2023-05-23T08:31:52.078Z,38.92
2023-05-23T08:34:18.873Z,39.01
2023-05-23T08:36:45.610Z,38.95
2023-05-23T08:39:14.112Z,38.74
2023-05-23T08:41:41.118Z,38.66
2023-05-23T08:44:07.850Z,38.55
2023-05-23T08:46:41.266Z,38.56
2023-05-23T08:49:09.073Z,38.21
2023-05-23T08:51:37.888Z,38.06
2023-05-23T08:54:06.336Z,38.02
2023-05-23T08:56:33.183Z,37.69
2023-05-23T08:58:59.952Z,37.29
2023-05-23T09:01:27.959Z,37.23
2023-05-23T09:03:55.155Z,37.25
2023-05-23T09:06:22.202Z,36.81
2023-05-23T09:08:49.381Z,36.69
2023-05-23T09:11:16.186Z,36.54
2023-05-23T09:13:42.931Z,36.00
2023-05-23T09:16:11.470Z,35.98
2023-05-23T09:18:40.315Z,35.67
2023-05-23T09:21:09.025Z,35.47
2023-05-23T09:23:37.034Z,35.31
2023-05-23T09:26:05.320Z,35.29
2023-05-23T09:28:34.086Z,35.09
2023-05-23T09:31:02.015Z,35.00
2023-05-23T09:33:48.299Z,35.20
2023-05-23T09:36:15.872Z,35.08
2023-05-23T09:38:44.854Z,35.07
2023-05-23T09:41:14.345Z,34.53
2023-05-23T09:43:53.517Z,34.40
2023-05-23T09:46:21.618Z,34.33
2023-05-23T09:48:52.169Z,34.18
2023-05-23T09:51:24.053Z,34.51
2023-05-23T09:53:51.094Z,34.12
2023-05-23T09:56:18.282Z,33.69
2023-05-23T09:58:48.350Z,33.64
2023-05-23T10:01:16.015Z,33.23
2023-05-23T10:03:51.063Z,33.19
2023-05-23T10:06:27.553Z,33.29
2023-05-23T10:09:06.059Z,33.12
2023-05-23T10:11:35.526Z,32.77
2023-05-23T10:14:09.285Z,32.81
2023-05-23T10:16:59.410Z,32.46
2023-05-23T10:19:29.779Z,32.54
2023-05-23T10:22:03.689Z,32.53
2023-05-23T10:24:30.993Z,32.32
2023-05-23T10:26:58.454Z,31.84
2023-05-23T10:29:26.043Z,31.79
2023-05-23T10:31:53.765Z,31.53
2023-05-23T10:34:36.509Z,31.43
2023-05-23T10:37:06.322Z,30.25
2023-05-23T10:39:49.075Z,30.39
2023-05-23T10:42:45.469Z,30.36
2023-05-23T10:45:30.220Z,30.63
2023-05-23T10:47:57.047Z,30.27
2023-05-23T10:50:34.492Z,29.69
2023-05-23T10:53:03.248Z,29.23
2023-05-23T10:55:35.261Z,29.27
2023-05-23T10:58:21.500Z,29.73
2023-05-23T11:01:02.198Z,29.68
2023-05-23T11:03:47.448Z,29.40
2023-05-23T11:06:38.703Z,29.47
2023-05-23T11:09:19.636Z,29.05
2023-05-23T11:11:49.167Z,28.83
2023-05-23T11:14:16.038Z,28.82
2023-05-23T11:16:45.553Z,28.39
2023-05-23T11:19:23.138Z,27.79
2023-05-23T11:21:53.236Z,27.33
2023-05-23T11:24:20.176Z,27.58
2023-05-23T11:27:00.998Z,27.88
2023-05-23T11:29:29.115Z,27.62
2023-05-23T11:31:57.152Z,27.08
2023-05-23T11:34:26.634Z,27.33
2023-05-23T11:36:55.857Z,26.89
2023-05-23T11:39:23.348Z,26.33
2023-05-23T11:42:01.058Z,26.57
2023-05-23T11:44:27.977Z,26.79
2023-05-23T11:47:05.086Z,26.24
2023-05-23T11:49:34.146Z,26.75
2023-05-23T11:52:02.453Z,26.16
2023-05-23T11:54:29.284Z,26.43
2023-05-23T11:56:56.835Z,26.55
2023-05-23T11:59:26.152Z,26.15
2023-05-23T12:01:53.579Z,26.00
2023-05-23T12:04:20.488Z,25.58
2023-05-23T12:06:48.679Z,25.86
2023-05-23T12:09:15.877Z,25.83
2023-05-23T12:11:44.326Z,25.63
2023-05-23T12:14:16.109Z,25.46
2023-05-23T12:16:48.479Z,25.44
2023-05-23T12:19:17.414Z,25.76
2023-05-23T12:21:48.843Z,25.99
2023-05-23T12:24:20.724Z,26.14
2023-05-23T12:26:57.763Z,26.44
2023-05-23T12:29:35.679Z,26.67
2023-05-23T12:32:05.477Z,25.87
2023-05-23T12:34:32.252Z,26.24
2023-05-23T12:37:18.060Z,25.97
2023-05-23T12:39:46.778Z,25.88
2023-05-23T12:42:13.578Z,26.04
2023-05-23T12:44:43.702Z,25.29
2023-05-23T12:47:13.432Z,24.77
2023-05-23T12:49:40.152Z,24.67
2023-05-23T12:52:07.400Z,24.59
2023-05-23T12:54:34.123Z,24.35
2023-05-23T12:57:01.025Z,24.34
2023-05-23T12:59:27.714Z,24.32
2023-05-23T13:01:55.102Z,24.12
2023-05-23T13:04:21.953Z,24.37
2023-05-23T13:06:48.702Z,24.19
2023-05-23T13:09:15.422Z,23.79
2023-05-23T13:11:42.206Z,24.29
2023-05-23T13:14:08.904Z,24.60
2023-05-23T13:16:36.472Z,24.52
2023-05-23T13:19:03.284Z,24.61
2023-05-23T13:21:30.066Z,24.42
2023-05-23T13:23:56.723Z,24.16
2023-05-23T13:26:23.393Z,24.58
2023-05-23T13:28:50.193Z,24.37
2023-05-23T13:31:16.948Z,23.99
2023-05-23T13:33:43.645Z,23.92
2023-05-23T13:36:10.493Z,23.34
2023-05-23T13:38:37.714Z,23.46
2023-05-23T13:41:04.511Z,23.41
2023-05-23T13:43:31.318Z,23.14
2023-05-23T13:45:58.101Z,22.87
2023-05-23T13:48:24.828Z,22.36
2023-05-23T13:50:51.526Z,21.86
2023-05-23T13:53:18.261Z,22.09
2023-05-23T13:55:45.526Z,22.09
2023-05-23T13:58:12.755Z,22.13
2023-05-23T14:00:40.100Z,22.06
2023-05-23T14:03:08.904Z,21.96
2023-05-23T14:05:36.624Z,22.09
2023-05-23T14:08:04.640Z,22.33
2023-05-23T14:10:33.348Z,22.47
2023-05-23T14:13:00.226Z,22.20
2023-05-23T14:15:27.213Z,22.18
2023-05-23T14:17:55.936Z,22.64
2023-05-23T14:20:23.739Z,21.85
2023-05-23T14:22:51.630Z,21.97
2023-05-23T14:25:18.831Z,21.85
2023-05-23T14:27:45.544Z,21.96
2023-05-23T14:30:12.664Z,21.82
2023-05-23T14:32:39.709Z,22.26
2023-05-23T14:35:07.845Z,22.31
2023-05-23T14:37:34.552Z,22.41
2023-05-23T14:40:01.956Z,22.90
2023-05-23T14:42:28.644Z,22.47
2023-05-23T14:44:55.349Z,22.39
2023-05-23T14:47:22.090Z,22.26
2023-05-23T14:49:48.928Z,22.48
2023-05-23T14:52:16.592Z,22.33
2023-05-23T14:54:46.339Z,22.61
2023-05-23T14:57:13.113Z,22.69
2023-05-23T14:59:39.892Z,23.10
2023-05-23T15:02:09.362Z,23.22
2023-05-23T15:04:37.893Z,22.58
2023-05-23T15:07:04.901Z,22.71
2023-05-23T15:09:31.580Z,22.69
2023-05-23T15:11:58.464Z,22.72
2023-05-23T15:14:29.463Z,22.35
2023-05-23T15:16:56.726Z,22.49
2023-05-23T15:19:23.725Z,22.59
2023-05-23T15:21:51.752Z,22.30
2023-05-23T15:24:19.098Z,22.19
2023-05-23T15:26:45.870Z,22.04
2023-05-23T15:29:14.609Z,21.73
2023-05-23T15:31:41.577Z,21.96
2023-05-23T15:34:08.440Z,21.60
2023-05-23T15:36:35.265Z,21.85
2023-05-23T15:39:02.152Z,21.75
2023-05-23T15:41:28.818Z,22.10
2023-05-23T15:43:55.657Z,22.25
2023-05-23T15:46:22.349Z,22.60
2023-05-23T15:48:49.104Z,22.23
2023-05-23T15:51:16.515Z,22.91
2023-05-23T15:54:00.120Z,22.98
2023-05-23T15:56:28.083Z,22.65
2023-05-23T15:58:55.660Z,22.31
2023-05-23T16:01:22.514Z,22.21
2023-05-23T16:03:49.905Z,22.56
2023-05-23T16:06:16.715Z,22.33
2023-05-23T16:08:43.425Z,22.28
2023-05-23T16:11:10.185Z,21.86
2023-05-23T16:13:36.934Z,22.34
2023-05-23T16:16:04.587Z,22.56
2023-05-23T16:18:31.553Z,22.83
2023-05-23T16:20:58.410Z,22.68
2023-05-23T16:23:25.154Z,22.56
2023-05-23T16:25:51.948Z,23.14
2023-05-23T16:28:20.477Z,22.72
2023-05-23T16:30:47.163Z,22.83
2023-05-23T16:33:14.274Z,22.87
2023-05-23T16:35:41.374Z,23.22
2023-05-23T16:38:08.241Z,22.74
2023-05-23T16:40:35.005Z,22.58
2023-05-23T16:43:02.502Z,22.43
2023-05-23T16:45:29.199Z,22.62
2023-05-23T16:47:56.030Z,22.45
2023-05-23T16:50:22.702Z,21.82
2023-05-23T16:52:49.438Z,21.80
2023-05-23T16:55:16.162Z,21.98
2023-05-23T16:57:42.866Z,22.10
2023-05-23T17:00:10.720Z,21.81
2023-05-23T17:02:37.566Z,21.91
2023-05-23T17:05:04.573Z,21.92
2023-05-23T17:07:31.311Z,21.91
2023-05-23T17:09:58.197Z,22.06
2023-05-23T17:12:26.379Z,22.16
2023-05-23T17:14:53.103Z,22.33
2023-05-23T17:17:19.791Z,22.41
2023-05-23T17:19:46.521Z,22.23
2023-05-23T17:22:13.351Z,22.74
2023-05-23T17:24:40.078Z,22.92
2023-05-23T17:27:06.850Z,23.07
2023-05-23T17:29:33.575Z,23.01
2023-05-23T17:32:00.529Z,23.35
2023-05-23T17:34:27.246Z,23.51
2023-05-23T17:36:54.002Z,23.77
2023-05-23T17:39:20.665Z,23.89
2023-05-23T17:41:47.352Z,23.87
2023-05-23T17:44:14.073Z,24.25
2023-05-23T17:46:40.977Z,24.57
2023-05-23T17:49:07.696Z,24.70
2023-05-23T17:51:34.370Z,24.78
2023-05-23T17:54:01.177Z,24.64
2023-05-23T17:56:27.827Z,24.82
2023-05-23T17:58:55.539Z,25.03
2023-05-23T18:01:22.649Z,25.29
2023-05-23T18:03:49.566Z,25.53
2023-05-23T18:06:16.252Z,25.52
2023-05-23T18:08:43.381Z,25.63
2023-05-23T18:11:10.232Z,26.02
2023-05-23T18:13:36.934Z,26.04
2023-05-23T18:16:03.619Z,26.28
2023-05-23T18:18:30.410Z,26.83
2023-05-23T18:20:57.138Z,26.87
2023-05-23T18:23:23.956Z,26.95
2023-05-23T18:25:50.719Z,26.94
2023-05-23T18:28:17.391Z,27.24
2023-05-23T18:30:44.838Z,27.39
2023-05-23T18:33:11.889Z,27.46
2023-05-23T18:35:38.612Z,27.88
2023-05-23T18:38:05.390Z,27.88
2023-05-23T18:40:32.098Z,28.24
2023-05-23T18:42:58.807Z,28.35
2023-05-23T18:45:25.480Z,28.66
2023-05-23T18:47:52.228Z,29.07
2023-05-23T18:50:18.960Z,29.30
2023-05-23T18:52:46.908Z,29.77
2023-05-23T18:55:13.701Z,29.62
2023-05-23T18:57:40.555Z,30.04
2023-05-23T19:00:09.111Z,29.61
2023-05-23T19:02:35.952Z,30.41
2023-05-23T19:05:02.966Z,30.66
2023-05-23T19:07:29.663Z,30.75
2023-05-23T19:09:56.625Z,30.66
2023-05-23T19:12:23.341Z,30.84
2023-05-23T19:14:49.985Z,30.72
2023-05-23T19:17:16.760Z,30.98
2023-05-23T19:19:43.621Z,31.02
2023-05-23T19:22:10.914Z,31.14
2023-05-23T19:24:37.739Z,31.20
2023-05-23T19:27:04.997Z,31.36
2023-05-23T19:29:31.727Z,31.58
2023-05-23T19:31:58.521Z,31.93
2023-05-23T19:34:25.407Z,32.09
2023-05-23T19:36:52.192Z,32.55
2023-05-23T19:39:19.222Z,32.78
2023-05-23T19:41:45.920Z,32.74
2023-05-23T19:44:13.286Z,32.98
2023-05-23T19:46:40.047Z,33.09
2023-05-23T19:49:08.137Z,33.38
2023-05-23T19:51:35.030Z,33.55
2023-05-23T19:54:01.977Z,33.70
2023-05-23T19:56:28.878Z,33.88
2023-05-23T19:58:57.969Z,34.00
2023-05-23T20:01:24.927Z,34.01
2023-05-23T20:03:52.439Z,34.08
2023-05-23T20:06:20.574Z,34.20
2023-05-23T20:08:47.508Z,34.24
2023-05-23T20:11:14.221Z,34.30
2023-05-23T20:13:40.939Z,34.34
2023-05-23T20:16:08.382Z,34.62
2023-05-23T20:18:35.128Z,34.78
2023-05-23T20:21:04.289Z,34.71
2023-05-23T20:23:31.828Z,34.93
2023-05-23T20:25:58.536Z,35.21
2023-05-23T20:28:25.371Z,35.50
2023-05-23T20:30:52.065Z,35.68
2023-05-23T20:33:19.217Z,36.13
2023-05-23T20:35:48.418Z,36.35
2023-05-23T20:38:18.565Z,36.70
2023-05-23T20:40:46.353Z,36.62
2023-05-23T20:43:15.127Z,36.88
2023-05-23T20:45:42.108Z,37.16
2023-05-23T20:48:09.238Z,37.25
2023-05-23T20:50:36.695Z,37.40
2023-05-23T20:53:03.708Z,37.93
2023-05-23T20:55:30.456Z,37.90
2023-05-23T20:57:57.183Z,38.21
2023-05-23T21:00:24.308Z,38.48
2023-05-23T21:02:51.156Z,38.41
2023-05-23T21:05:17.943Z,38.79
2023-05-23T21:07:44.750Z,38.92
2023-05-23T21:10:11.508Z,39.21
2023-05-23T21:12:38.325Z,39.49
2023-05-23T21:15:05.425Z,39.55
2023-05-23T21:17:32.128Z,39.71
2023-05-23T21:19:58.842Z,39.96
2023-05-23T21:22:25.569Z,40.04
2023-05-23T21:24:52.264Z,40.36
2023-05-23T21:27:18.942Z,40.30
2023-05-23T21:29:46.996Z,40.38
2023-05-23T21:32:13.943Z,40.57
2023-05-23T21:34:40.828Z,40.63
2023-05-23T21:37:07.748Z,40.84
2023-05-23T21:39:46.952Z,40.80
2023-05-23T21:42:17.520Z,40.97
2023-05-23T21:44:44.314Z,40.97
2023-05-23T21:47:10.992Z,41.34
2023-05-23T21:49:38.079Z,41.58
2023-05-23T21:52:05.385Z,41.79
2023-05-23T21:54:32.140Z,41.77
2023-05-23T21:56:58.850Z,42.14
2023-05-23T21:59:25.568Z,42.34
2023-05-23T22:01:52.337Z,42.55
2023-05-23T22:04:20.206Z,42.64
2023-05-23T22:06:47.106Z,42.71
2023-05-23T22:09:15.429Z,42.85
2023-05-23T22:11:42.477Z,42.94
2023-05-23T22:14:10.108Z,43.06
2023-05-23T22:16:39.906Z,43.29
2023-05-23T22:19:09.161Z,43.14
2023-05-23T22:21:39.597Z,43.46
2023-05-23T22:24:06.496Z,43.75
2023-05-23T22:26:33.158Z,43.82
2023-05-23T22:28:59.896Z,44.24
2023-05-23T22:31:29.026Z,44.52
2023-05-23T22:33:56.155Z,44.38
2023-05-23T22:36:23.425Z,44.85
2023-05-23T22:38:50.354Z,45.13
2023-05-23T22:41:17.224Z,45.12
2023-05-23T22:43:44.319Z,45.72
2023-05-23T22:46:11.243Z,45.64
2023-05-23T22:48:38.062Z,45.81
2023-05-23T22:51:06.245Z,45.98
2023-05-23T22:53:32.971Z,45.67
2023-05-23T22:55:59.717Z,46.14
2023-05-23T22:58:26.763Z,46.28
2023-05-23T23:00:53.476Z,46.22
2023-05-23T23:03:20.256Z,46.32
2023-05-23T23:05:47.014Z,46.50
2023-05-23T23:08:13.775Z,46.70
2023-05-23T23:10:41.959Z,46.72
2023-05-23T23:13:08.967Z,47.07
2023-05-23T23:15:36.970Z,47.21
2023-05-23T23:18:05.899Z,47.18
2023-05-23T23:20:33.232Z,47.54
2023-05-23T23:23:00.427Z,47.69
2023-05-23T23:25:27.139Z,47.65
2023-05-23T23:27:53.788Z,47.91
2023-05-23T23:30:20.744Z,48.24
2023-05-23T23:32:47.474Z,48.47
2023-05-23T23:35:14.403Z,48.44
2023-05-23T23:37:41.120Z,48.58
2023-05-23T23:40:08.944Z,48.50
2023-05-23T23:42:35.779Z,48.52
2023-05-23T23:45:02.793Z,48.63
2023-05-23T23:47:29.543Z,48.95
2023-05-23T23:49:56.279Z,49.37
2023-05-23T23:52:22.934Z,49.32
2023-05-23T23:54:49.629Z,49.24
2023-05-23T23:57:16.571Z,49.21
2023-05-23T23:59:43.862Z,49.34
